TimeEST,TemperatureF,Dew PointF,Humidity,Sea Level PressureIn,VisibilityMPH,Wind Direction,Wind SpeedMPH,Gust SpeedMPH,PrecipitationIn,Events,Conditions,WindDirDegrees,DateUTC
12:51 AM,9.1,-1.8,61,30.65,10.0,North,9.2,-,0.00,,Clear,350,2014-01-22 05:51:00
1:51 AM,9.1,-4.0,55,30.65,10.0,North,9.2,18.4,N/A,,Overcast,360,2014-01-22 06:51:00
2:51 AM,8.1,-4.9,56,30.63,10.0,North,11.5,18.4,N/A,,Scattered Clouds,350,2014-01-22 07:51:00
3:51 AM,7.2,-6.0,55,30.63,10.0,North,9.2,-,N/A,,Clear,360,2014-01-22 08:51:00
4:51 AM,6.1,-6.0,58,30.60,10.0,North,10.4,-,N/A,,Clear,350,2014-01-22 09:51:00
5:51 AM,5.0,-8.0,55,30.61,10.0,North,11.5,18.4,N/A,,Clear,350,2014-01-22 10:51:00
6:51 AM,5.0,-8.9,53,30.61,10.0,North,11.5,-,N/A,,Clear,360,2014-01-22 11:51:00
7:51 AM,4.1,-8.9,55,30.59,10.0,North,12.7,-,N/A,,Clear,350,2014-01-22 12:51:00
8:51 AM,4.1,-9.9,52,30.58,10.0,NNW,13.8,-,N/A,,Clear,340,2014-01-22 13:51:00
9:51 AM,3.0,-11.9,50,30.57,10.0,NNW,12.7,-,N/A,,Clear,340,2014-01-22 14:51:00
10:51 AM,7.2,-9.9,46,30.51,10.0,North,12.7,17.3,N/A,,Clear,360,2014-01-22 15:51:00
11:51 AM,11.1,-8.9,40,30.46,10.0,North,12.7,24.2,N/A,,Clear,360,2014-01-22 16:51:00
12:51 PM,13.1,-8.0,39,30.45,10.0,North,10.4,21.9,N/A,,Clear,350,2014-01-22 17:51:00
1:51 PM,14.0,-6.9,39,30.46,10.0,North,17.3,-,N/A,,Clear,350,2014-01-22 18:51:00
2:51 PM,16.2,-8.0,34,30.49,10.0,North,11.5,-,N/A,,Clear,350,2014-01-22 19:51:00
3:51 PM,16.2,-8.0,34,30.51,10.0,NW,13.8,-,N/A,,Clear,320,2014-01-22 20:51:00
4:51 PM,14.0,-8.0,37,30.54,10.0,NW,9.2,-,N/A,,Clear,310,2014-01-22 21:51:00
5:51 PM,12.0,-8.0,41,30.56,10.0,NW,6.9,-,N/A,,Clear,320,2014-01-22 22:51:00
6:51 PM,11.1,-8.0,42,30.58,10.0,NW,10.4,-,N/A,,Clear,320,2014-01-22 23:51:00
7:51 PM,9.1,-8.0,46,30.61,10.0,NNW,11.5,-,N/A,,Clear,330,2014-01-23 00:51:00
8:51 PM,9.1,-8.0,46,30.63,10.0,NW,10.4,-,N/A,,Clear,320,2014-01-23 01:51:00
9:51 PM,7.2,-8.9,48,30.66,10.0,NNW,11.5,-,N/A,,Clear,330,2014-01-23 02:51:00
10:51 PM,7.2,-8.0,50,30.66,10.0,NNW,20.7,26.5,N/A,,Clear,340,2014-01-23 03:51:00
11:51 PM,5.0,-9.9,50,30.68,10.0,NNW,11.5,25.3,N/A,,Clear,340,2014-01-23 04:51:00